Hampden, ME

9:04 AM EST on January 25, 2015 (GMT -0500)
Newburgh Hills | Change Station
CLOSE
Current Station
Personal Weather Station
Location: Newburgh, ME
Elevation: 358 ft
Nearby Weather Stations

Elev 358 ft 44.69 °N, 69.02 °W | Updated 13 seconds ago

Mostly Cloudy
Mostly Cloudy
29.5 °F
Feels Like 23 °F
N
6.0
Wind Variable Wind from SSW
Gusts 16.0 mph

Today
High -- | Low -- °F
--% Chance of Precip.
Yesterday
High -- | Low -- °F
Precip. -- in
7:02 AM 4:34 PM
Waxing Crescent, 32% visible
Pressure 29.35 in
Visibility 10.0 miles
Clouds Few 3500 ft
Few 9000 ft
Windchill 23 °F
Dew Point 25 °F
Humidity 82%
Rainfall 0.00 in
Snow Depth Not available.
UV 0.0 out of 12
Pollen .10 out of 12
Air Quality Not available.
Flu Activity Not available.
METAR KBGR 251353Z COR 25008G17KT 10SM FEW035 FEW090 00/M04 A2934 RMK AO2 PRESENT WX VCSH SLP939 T00001044

More Conditions Fewer Conditions

Pressure 29.35 in
Visibility 10.0 miles
Clouds Few 3500 ft
Few 9000 ft
Windchill 23 °F
Dew Point 25 °F
Humidity 82%
Rainfall 0.00 in
Snow Depth Not available.
UV 0.0 out of 12
Pollen .10 out of 12
Air Quality Not available.
Flu Activity Not available.
METAR KBGR 251353Z COR 25008G17KT 10SM FEW035 FEW090 00/M04 A2934 RMK AO2 PRESENT WX VCSH SLP939 T00001044

More Conditions Fewer Conditions

10-Day Weather Forecast

Almanac

Astronomy

Jan. 25, 2015 Rise Set
Actual Time
Civil Twilight
Nautical Twilight
Astronomical Twilight
Moon
Length of Visible Light
Length of Day
Tomorrow will be .
, % of the Moon is Illuminated

Today's Extremes

State Highs State Lows

Community

WunderPhotos

Upload Photos

1,789,887 photos uploaded!

WunderBlogs® & News

Nearby

Air Quality

  Air Quality AQ Index Pollutant
Not available.

Snow Depth

Station Depth Elevation

Earthquake Activity

City Distance Mag. Time & Date
Minimum magnitude displayed is 2.5.

Coastal Water Temperatures

Place Temperature

Nearby Weather Stations